Time,TemperatureF,DewpointF,PressureIn,WindDirection,WindDirectionDegrees,WindSpeedMPH,WindSpeedGustMPH,Humidity,HourlyPrecipIn,Conditions,Clouds,dailyrainin,SoftwareType,DateUTC
2013-02-26 00:00:00,37.6,23.3,30.06,NE,45,1.1,5.4,56,0.00,,CLR,0.00,VWS V12.08,2013-02-26 05:00:00,
2013-02-26 00:01:00,37.6,23.3,30.06,NE,45,1.1,5.4,56,0.00,,CLR,0.00,VWS V12.08,2013-02-26 05:01:00,
2013-02-26 00:06:00,37.6,23.3,30.05,ENE,68,0.0,1.1,56,0.00,,CLR,0.00,VWS V12.08,2013-02-26 05:06:00,
2013-02-26 00:11:00,37.6,23.7,30.06,ENE,68,1.1,3.8,57,0.00,,CLR,0.00,VWS V12.08,2013-02-26 05:11:00,
2013-02-26 00:16:00,37.6,23.7,30.06,ENE,68,0.0,3.8,57,0.00,,CLR,0.00,VWS V12.08,2013-02-26 05:16:00,
2013-02-26 00:21:00,37.4,23.1,30.06,NE,45,1.8,1.8,56,0.00,,CLR,0.00,VWS V12.08,2013-02-26 05:21:00,
2013-02-26 00:26:00,37.4,23.1,30.06,ENE,68,0.9,1.8,56,0.00,,CLR,0.00,VWS V12.08,2013-02-26 05:26:00,
2013-02-26 00:31:00,37.2,23.0,30.06,ENE,68,0.0,1.8,56,0.00,,CLR,0.00,VWS V12.08,2013-02-26 05:31:00,
2013-02-26 00:36:00,37.2,23.0,30.05,ENE,68,2.7,6.5,56,0.00,,CLR,0.00,VWS V12.08,2013-02-26 05:36:00,
2013-02-26 00:41:00,37.2,23.0,30.04,East,90,1.6,1.6,56,0.00,,CLR,0.00,VWS V12.08,2013-02-26 05:41:00,
2013-02-26 00:46:00,37.0,22.8,30.04,ENE,68,0.0,1.6,56,0.00,,CLR,0.00,VWS V12.08,2013-02-26 05:46:00,
2013-02-26 00:51:00,37.0,23.2,30.04,NE,45,0.0,1.6,57,0.00,,CLR,0.00,VWS V12.08,2013-02-26 05:51:00,
2013-02-26 00:56:00,37.0,23.2,30.04,NE,45,1.1,2.0,57,0.00,,CLR,0.00,VWS V12.08,2013-02-26 05:56:00,
2013-02-26 01:01:00,36.9,23.1,30.04,NE,45,1.3,2.0,57,0.00,,CLR,0.00,VWS V12.08,2013-02-26 06:01:00,
2013-02-26 01:06:00,36.9,23.1,30.03,ENE,68,0.4,1.3,57,0.00,,CLR,0.00,VWS V12.08,2013-02-26 06:06:00,
2013-02-26 01:11:00,36.9,23.1,30.03,ENE,68,1.3,1.3,57,0.00,,CLR,0.00,VWS V12.08,2013-02-26 06:11:00,
2013-02-26 01:16:00,36.9,23.1,30.04,ENE,68,4.0,4.0,57,0.00,,CLR,0.00,VWS V12.08,2013-02-26 06:16:00,
2013-02-26 01:21:00,36.7,22.9,30.04,NE,45,2.0,2.0,57,0.00,,CLR,0.00,VWS V12.08,2013-02-26 06:21:00,
2013-02-26 01:26:00,36.7,22.9,30.04,East,90,2.2,2.2,57,0.00,,CLR,0.00,VWS V12.08,2013-02-26 06:26:00,
2013-02-26 01:31:00,36.5,23.5,30.04,ENE,68,1.3,3.8,59,0.00,,CLR,0.00,VWS V12.08,2013-02-26 06:31:00,
2013-02-26 01:36:00,36.3,23.8,30.04,ENE,68,2.2,3.8,60,0.00,,CLR,0.00,VWS V12.08,2013-02-26 06:36:00,
2013-02-26 01:41:00,36.0,23.8,30.04,NNE,22,0.0,3.6,61,0.00,,CLR,0.00,VWS V12.08,2013-02-26 06:41:00,
2013-02-26 01:46:00,35.8,24.4,30.04,ENE,68,1.8,3.6,63,0.00,,CLR,0.00,VWS V12.08,2013-02-26 06:46:00,
2013-02-26 01:51:00,35.4,24.1,30.04,ENE,68,1.8,3.6,63,0.00,,CLR,0.00,VWS V12.08,2013-02-26 06:51:00,
2013-02-26 01:56:00,34.9,24.3,30.04,ENE,68,0.0,3.6,65,0.00,,CLR,0.00,VWS V12.08,2013-02-26 06:56:00,
2013-02-26 02:01:00,34.5,24.4,30.03,NE,45,0.0,0.0,66,0.00,,CLR,0.00,VWS V12.08,2013-02-26 07:01:00,
2013-02-26 02:06:00,34.3,24.9,30.03,ENE,68,0.0,0.0,68,0.00,,CLR,0.00,VWS V12.08,2013-02-26 07:06:00,
2013-02-26 02:11:00,34.3,24.9,30.03,NNE,22,2.5,2.5,68,0.00,,CLR,0.00,VWS V12.08,2013-02-26 07:11:00,
2013-02-26 02:16:00,33.8,25.1,30.02,NE,45,0.0,2.5,70,0.00,,CLR,0.00,VWS V12.08,2013-02-26 07:16:00,
2013-02-26 02:21:00,33.6,25.2,30.02,North,0,1.1,1.1,71,0.00,,CLR,0.00,VWS V12.08,2013-02-26 07:21:00,
2013-02-26 02:26:00,33.6,25.2,30.02,NNE,22,0.0,1.1,71,0.00,,CLR,0.00,VWS V12.08,2013-02-26 07:26:00,
2013-02-26 02:31:00,33.6,25.6,30.02,ENE,68,0.0,1.1,72,0.00,,CLR,0.00,VWS V12.08,2013-02-26 07:31:00,
2013-02-26 02:36:00,33.6,25.6,30.02,ENE,68,0.0,1.1,72,0.00,,CLR,0.00,VWS V12.08,2013-02-26 07:36:00,
2013-02-26 02:41:00,33.6,25.9,30.02,North,0,0.0,0.0,73,0.00,,CLR,0.00,VWS V12.08,2013-02-26 07:41:00,
2013-02-26 02:46:00,33.4,25.7,30.01,North,0,0.0,0.0,73,0.00,,CLR,0.00,VWS V12.08,2013-02-26 07:46:00,
2013-02-26 02:51:00,33.4,26.1,30.00,ENE,68,0.0,0.0,74,0.00,,CLR,0.00,VWS V12.08,2013-02-26 07:51:00,
2013-02-26 02:56:00,33.1,25.7,29.99,NE,45,0.0,0.0,74,0.02,,CLR,0.02,VWS V12.08,2013-02-26 07:56:00,
2013-02-26 03:01:00,33.1,25.7,29.98,ENE,68,1.8,1.8,74,0.02,,CLR,0.02,VWS V12.08,2013-02-26 08:01:00,
2013-02-26 03:06:00,33.1,26.0,29.99,ENE,68,1.3,1.8,75,0.02,,CLR,0.02,VWS V12.08,2013-02-26 08:06:00,
2013-02-26 03:11:00,32.9,26.2,29.99,ESE,112,0.0,1.8,76,0.02,,CLR,0.02,VWS V12.08,2013-02-26 08:11:00,
2013-02-26 03:16:00,32.9,26.2,29.99,ENE,68,1.3,1.8,76,0.02,,CLR,0.02,VWS V12.08,2013-02-26 08:16:00,
2013-02-26 03:21:00,32.9,26.5,29.99,ENE,68,0.0,1.3,77,0.02,,CLR,0.02,VWS V12.08,2013-02-26 08:21:00,
2013-02-26 03:26:00,32.9,26.5,29.99,ENE,68,0.0,1.3,77,0.02,,CLR,0.02,VWS V12.08,2013-02-26 08:26:00,
2013-02-26 03:31:00,32.9,26.5,29.99,ENE,68,0.0,1.3,77,0.02,,CLR,0.02,VWS V12.08,2013-02-26 08:31:00,
2013-02-26 03:36:00,32.9,26.5,29.99,NNE,22,3.4,3.4,77,0.02,,CLR,0.02,VWS V12.08,2013-02-26 08:36:00,
2013-02-26 03:41:00,32.9,26.5,29.98,NE,45,0.0,0.0,77,0.02,,CLR,0.02,VWS V12.08,2013-02-26 08:41:00,
2013-02-26 03:46:00,32.7,26.6,29.97,NE,45,0.0,0.4,78,0.02,,CLR,0.02,VWS V12.08,2013-02-26 08:46:00,
2013-02-26 03:51:00,32.7,26.6,29.97,NW,315,0.0,0.4,78,0.02,,CLR,0.02,VWS V12.08,2013-02-26 08:51:00,
2013-02-26 03:56:00,32.7,26.6,29.98,NNE,22,1.3,2.5,78,0.02,,CLR,0.04,VWS V12.08,2013-02-26 08:56:00,
2013-02-26 04:01:00,32.7,26.6,29.97,NNE,22,1.6,1.6,78,0.02,,CLR,0.04,VWS V12.08,2013-02-26 09:01:00,
2013-02-26 04:06:00,32.7,26.6,29.98,NE,45,0.0,1.6,78,0.02,,CLR,0.04,VWS V12.08,2013-02-26 09:06:00,
2013-02-26 04:11:00,32.7,26.9,29.98,NE,45,0.0,1.6,79,0.02,,CLR,0.04,VWS V12.08,2013-02-26 09:11:00,
2013-02-26 04:16:00,32.7,26.9,29.99,ENE,68,0.0,3.1,79,0.02,,CLR,0.04,VWS V12.08,2013-02-26 09:16:00,
2013-02-26 04:21:00,32.7,26.9,29.98,ENE,68,0.0,0.0,79,0.02,,CLR,0.04,VWS V12.08,2013-02-26 09:21:00,
2013-02-26 04:26:00,32.7,26.9,29.97,ENE,68,0.0,3.8,79,0.02,,CLR,0.04,VWS V12.08,2013-02-26 09:26:00,
2013-02-26 04:31:00,32.7,26.9,29.98,East,90,0.0,3.8,79,0.04,,CLR,0.06,VWS V12.08,2013-02-26 09:31:00,
2013-02-26 04:36:00,32.7,26.9,29.98,East,90,0.0,3.8,79,0.04,,CLR,0.09,VWS V12.08,2013-02-26 09:36:00,
2013-02-26 04:41:00,32.7,26.9,29.98,ENE,68,1.3,1.3,79,0.06,,CLR,0.09,VWS V12.08,2013-02-26 09:41:00,
2013-02-26 04:46:00,32.7,26.9,29.98,ENE,68,0.0,1.3,79,0.06,,CLR,0.09,VWS V12.08,2013-02-26 09:46:00,
2013-02-26 04:51:00,32.7,26.9,29.97,ENE,68,1.1,1.3,79,0.09,,CLR,0.11,VWS V12.08,2013-02-26 09:51:00,
2013-02-26 04:56:00,32.7,27.2,29.97,ENE,68,0.0,1.3,80,0.06,,CLR,0.11,VWS V12.08,2013-02-26 09:56:00,
2013-02-26 05:01:00,32.7,27.2,29.97,ENE,68,0.0,0.0,80,0.06,,CLR,0.11,VWS V12.08,2013-02-26 10:01:00,
2013-02-26 05:06:00,32.9,27.4,29.97,ENE,68,0.0,0.0,80,0.11,,CLR,0.15,VWS V12.08,2013-02-26 10:06:00,
2013-02-26 05:11:00,32.9,27.4,29.97,ENE,68,4.5,4.5,80,0.11,,CLR,0.15,VWS V12.08,2013-02-26 10:11:00,
2013-02-26 05:16:00,32.9,27.4,29.97,ENE,68,0.7,4.5,80,0.11,,CLR,0.15,VWS V12.08,2013-02-26 10:16:00,
2013-02-26 05:21:00,32.9,27.7,29.96,ENE,68,0.0,0.9,81,0.19,,CLR,0.24,VWS V12.08,2013-02-26 10:21:00,
2013-02-26 05:26:00,32.9,27.7,29.96,ENE,68,0.0,0.9,81,0.19,,CLR,0.24,VWS V12.08,2013-02-26 10:26:00,
2013-02-26 05:31:00,32.9,27.7,29.96,ENE,68,0.0,0.9,81,0.19,,CLR,0.26,VWS V12.08,2013-02-26 10:31:00,
2013-02-26 05:36:00,33.1,27.9,29.96,ENE,68,0.0,0.9,81,0.19,,CLR,0.28,VWS V12.08,2013-02-26 10:36:00,
2013-02-26 05:41:00,33.1,27.9,29.96,ENE,68,0.0,0.0,81,0.22,,CLR,0.30,VWS V12.08,2013-02-26 10:41:00,
2013-02-26 05:46:00,33.1,27.9,29.96,ENE,68,0.0,0.0,81,0.19,,CLR,0.30,VWS V12.08,2013-02-26 10:46:00,
2013-02-26 05:51:00,33.1,27.9,29.96,ENE,68,0.0,0.0,81,0.19,,CLR,0.30,VWS V12.08,2013-02-26 10:51:00,
2013-02-26 05:56:00,33.1,27.9,29.96,ENE,68,0.0,0.0,81,0.19,,CLR,0.30,VWS V12.08,2013-02-26 10:56:00,
2013-02-26 06:01:00,33.1,27.9,29.95,ENE,68,0.0,0.0,81,0.17,,CLR,0.32,VWS V12.08,2013-02-26 11:01:00,
2013-02-26 06:06:00,33.1,27.9,29.95,ENE,68,0.0,0.0,81,0.24,,CLR,0.39,VWS V12.08,2013-02-26 11:06:00,
2013-02-26 06:11:00,33.1,27.9,29.95,ENE,68,0.0,0.0,81,0.24,,CLR,0.39,VWS V12.08,2013-02-26 11:11:00,
2013-02-26 06:16:00,33.1,27.9,29.94,ENE,68,0.0,0.0,81,0.22,,CLR,0.41,VWS V12.08,2013-02-26 11:16:00,
2013-02-26 06:21:00,33.1,27.9,29.93,ENE,68,0.0,0.0,81,0.19,,CLR,0.45,VWS V12.08,2013-02-26 11:21:00,
2013-02-26 06:26:00,33.3,28.1,29.93,ENE,68,0.0,0.0,81,0.22,,CLR,0.45,VWS V12.08,2013-02-26 11:26:00,
2013-02-26 06:31:00,33.3,28.1,29.92,ENE,68,0.0,0.0,81,0.19,,CLR,0.45,VWS V12.08,2013-02-26 11:31:00,
2013-02-26 06:36:00,33.3,28.4,29.93,ENE,68,0.0,0.0,82,0.17,,CLR,0.48,VWS V12.08,2013-02-26 11:36:00,
2013-02-26 06:41:00,33.3,28.4,29.93,ENE,68,0.0,0.0,82,0.17,,CLR,0.48,VWS V12.08,2013-02-26 11:41:00,
2013-02-26 06:46:00,33.3,28.4,29.93,ENE,68,0.0,0.0,82,0.22,,CLR,0.52,VWS V12.08,2013-02-26 11:46:00,
2013-02-26 06:51:00,33.4,28.5,29.93,ENE,68,0.0,0.0,82,0.26,,CLR,0.58,VWS V12.08,2013-02-26 11:51:00,
2013-02-26 06:56:00,33.4,28.5,29.93,ENE,68,0.0,0.0,82,0.26,,CLR,0.58,VWS V12.08,2013-02-26 11:56:00,
2013-02-26 07:01:00,33.4,28.5,29.92,ENE,68,0.0,0.0,82,0.22,,CLR,0.61,VWS V12.08,2013-02-26 12:01:00,
2013-02-26 07:06:00,33.4,28.5,29.91,ENE,68,0.0,0.0,82,0.26,,CLR,0.65,VWS V12.08,2013-02-26 12:06:00,
2013-02-26 07:11:00,33.4,28.5,29.91,ENE,68,0.0,0.0,82,0.26,,CLR,0.65,VWS V12.08,2013-02-26 12:11:00,
2013-02-26 07:16:00,33.4,28.5,29.91,ENE,68,0.0,0.0,82,0.24,,CLR,0.67,VWS V12.08,2013-02-26 12:16:00,
2013-02-26 07:21:00,33.4,28.5,29.91,ENE,68,0.0,0.0,82,0.24,,CLR,0.69,VWS V12.08,2013-02-26 12:21:00,
2013-02-26 07:26:00,33.4,28.5,29.91,ENE,68,0.0,0.0,82,0.24,,CLR,0.69,VWS V12.08,2013-02-26 12:26:00,
2013-02-26 07:31:00,33.4,28.5,29.91,ENE,68,0.0,0.0,82,0.26,,CLR,0.71,VWS V12.08,2013-02-26 12:31:00,
2013-02-26 07:36:00,33.4,28.5,29.91,ENE,68,0.0,0.0,82,0.26,,CLR,0.73,VWS V12.08,2013-02-26 12:36:00,
2013-02-26 07:41:00,33.4,28.5,29.90,ENE,68,0.0,0.0,82,0.22,,CLR,0.73,VWS V12.08,2013-02-26 12:41:00,
2013-02-26 07:46:00,33.4,28.5,29.90,ENE,68,0.0,0.0,82,0.19,,CLR,0.76,VWS V12.08,2013-02-26 12:46:00,
2013-02-26 07:51:00,33.6,28.7,29.89,ENE,68,0.0,0.0,82,0.19,,CLR,0.78,VWS V12.08,2013-02-26 12:51:00,
2013-02-26 07:56:00,33.6,28.7,29.89,ENE,68,0.0,0.0,82,0.19,,CLR,0.80,VWS V12.08,2013-02-26 12:56:00,
2013-02-26 08:01:00,33.6,28.7,29.90,ENE,68,0.0,0.0,82,0.15,,CLR,0.80,VWS V12.08,2013-02-26 13:01:00,
2013-02-26 08:06:00,33.6,28.7,29.89,ENE,68,0.0,0.0,82,0.17,,CLR,0.82,VWS V12.08,2013-02-26 13:06:00,
2013-02-26 08:11:00,33.6,28.7,29.88,ENE,68,0.0,0.0,82,0.17,,CLR,0.82,VWS V12.08,2013-02-26 13:11:00,
2013-02-26 08:16:00,33.6,28.7,29.87,ENE,68,0.0,0.0,82,0.15,,CLR,0.84,VWS V12.08,2013-02-26 13:16:00,
2013-02-26 08:21:00,33.6,28.7,29.87,ENE,68,0.0,0.0,82,0.17,,CLR,0.89,VWS V12.08,2013-02-26 13:21:00,
2013-02-26 08:26:00,33.6,28.7,29.88,ENE,68,0.0,0.0,82,0.19,,CLR,0.89,VWS V12.08,2013-02-26 13:26:00,
2013-02-26 08:31:00,33.6,28.7,29.87,ENE,68,0.0,0.0,82,0.17,,CLR,0.89,VWS V12.08,2013-02-26 13:31:00,
2013-02-26 08:36:00,33.6,28.7,29.86,ENE,68,0.0,0.0,82,0.15,,CLR,0.91,VWS V12.08,2013-02-26 13:36:00,
2013-02-26 08:41:00,33.6,28.7,29.86,ENE,68,0.0,0.0,82,0.19,,CLR,0.95,VWS V12.08,2013-02-26 13:41:00,
2013-02-26 08:46:00,33.6,28.7,29.87,ENE,68,2.5,2.5,82,0.19,,CLR,0.95,VWS V12.08,2013-02-26 13:46:00,
2013-02-26 08:51:00,33.6,28.7,29.87,ENE,68,2.5,2.5,82,0.17,,CLR,0.95,VWS V12.08,2013-02-26 13:51:00,
2013-02-26 08:56:00,33.6,28.7,29.87,ENE,68,0.0,2.5,82,0.24,,CLR,1.04,VWS V12.08,2013-02-26 13:56:00,
2013-02-26 09:01:00,33.6,28.7,29.84,ENE,68,0.0,0.0,82,0.22,,CLR,1.04,VWS V12.08,2013-02-26 14:01:00,
2013-02-26 09:06:00,33.6,28.7,29.83,ENE,68,0.0,0.0,82,0.22,,CLR,1.04,VWS V12.08,2013-02-26 14:06:00,
2013-02-26 09:11:00,33.6,28.7,29.84,ENE,68,0.0,0.0,82,0.24,,CLR,1.06,VWS V12.08,2013-02-26 14:11:00,
2013-02-26 09:16:00,33.6,28.7,29.84,ENE,68,0.0,0.0,82,0.24,,CLR,1.10,VWS V12.08,2013-02-26 14:16:00,
2013-02-26 09:21:00,33.6,28.7,29.84,ENE,68,0.0,0.0,82,0.22,,CLR,1.10,VWS V12.08,2013-02-26 14:21:00,
2013-02-26 09:26:00,33.8,28.9,29.85,ENE,68,0.0,0.0,82,0.24,,CLR,1.12,VWS V12.08,2013-02-26 14:26:00,
2013-02-26 09:31:00,34.0,29.4,29.84,ENE,68,0.0,0.0,83,0.32,,CLR,1.21,VWS V12.08,2013-02-26 14:31:00,
2013-02-26 09:36:00,34.0,29.4,29.85,ENE,68,0.0,0.0,83,0.30,,CLR,1.25,VWS V12.08,2013-02-26 14:36:00,
2013-02-26 09:41:00,34.0,29.4,29.85,ENE,68,0.0,0.0,83,0.37,,CLR,1.32,VWS V12.08,2013-02-26 14:41:00,
2013-02-26 09:46:00,34.0,29.4,29.85,ENE,68,0.0,0.0,83,0.37,,CLR,1.32,VWS V12.08,2013-02-26 14:46:00,
2013-02-26 09:51:00,34.0,29.4,29.83,ENE,68,0.0,0.0,83,0.37,,CLR,1.32,VWS V12.08,2013-02-26 14:51:00,
2013-02-26 09:56:00,34.0,29.4,29.82,ENE,68,0.0,0.0,83,0.30,,CLR,1.34,VWS V12.08,2013-02-26 14:56:00,
2013-02-26 10:01:00,34.0,29.4,29.82,ENE,68,0.0,0.0,83,0.30,,CLR,1.34,VWS V12.08,2013-02-26 15:01:00,
2013-02-26 10:06:00,34.0,29.4,29.82,ENE,68,0.0,0.0,83,0.39,,CLR,1.43,VWS V12.08,2013-02-26 15:06:00,
2013-02-26 10:11:00,34.2,29.5,29.82,ENE,68,0.0,0.0,83,0.37,,CLR,1.43,VWS V12.08,2013-02-26 15:11:00,
2013-02-26 10:16:00,34.0,29.4,29.81,ENE,68,0.0,0.0,83,0.32,,CLR,1.43,VWS V12.08,2013-02-26 15:16:00,
2013-02-26 10:21:00,34.0,29.4,29.80,ENE,68,0.0,0.0,83,0.30,,CLR,1.43,VWS V12.08,2013-02-26 15:21:00,
2013-02-26 10:26:00,34.2,29.5,29.80,ENE,68,0.0,0.0,83,0.24,,CLR,1.43,VWS V12.08,2013-02-26 15:26:00,
2013-02-26 10:31:00,34.2,29.5,29.80,ENE,68,0.0,0.0,83,0.22,,CLR,1.45,VWS V12.08,2013-02-26 15:31:00,
2013-02-26 10:36:00,34.2,29.5,29.80,ENE,68,0.0,0.0,83,0.19,,CLR,1.45,VWS V12.08,2013-02-26 15:36:00,
2013-02-26 10:41:00,34.2,29.5,29.80,ENE,68,0.0,0.0,83,0.15,,CLR,1.45,VWS V12.08,2013-02-26 15:41:00,
2013-02-26 10:46:00,34.3,29.7,29.80,ENE,68,0.0,0.0,83,0.15,,CLR,1.47,VWS V12.08,2013-02-26 15:46:00,
2013-02-26 10:51:00,34.3,29.7,29.81,ENE,68,0.0,0.0,83,0.15,,CLR,1.47,VWS V12.08,2013-02-26 15:51:00,
2013-02-26 10:56:00,34.3,29.7,29.80,ENE,68,0.0,0.0,83,0.06,,CLR,1.47,VWS V12.08,2013-02-26 15:56:00,
2013-02-26 11:01:00,34.3,29.7,29.79,ENE,68,0.0,0.0,83,0.04,,CLR,1.47,VWS V12.08,2013-02-26 16:01:00,
2013-02-26 11:06:00,34.3,29.7,29.78,NW,315,1.6,1.6,83,0.09,,CLR,1.51,VWS V12.08,2013-02-26 16:06:00,
2013-02-26 11:11:00,34.3,29.7,29.78,NW,315,0.0,1.6,83,0.09,,CLR,1.51,VWS V12.08,2013-02-26 16:11:00,
2013-02-26 11:16:00,34.3,29.7,29.78,NW,315,0.0,1.6,83,0.13,,CLR,1.56,VWS V12.08,2013-02-26 16:16:00,
2013-02-26 11:21:00,34.3,30.0,29.77,NNW,338,0.0,2.5,84,0.13,,CLR,1.56,VWS V12.08,2013-02-26 16:21:00,
2013-02-26 11:26:00,34.3,30.0,29.77,North,0,0.0,2.5,84,0.13,,CLR,1.56,VWS V12.08,2013-02-26 16:26:00,
2013-02-26 11:31:00,34.3,30.0,29.77,North,0,0.0,2.5,84,0.13,,CLR,1.58,VWS V12.08,2013-02-26 16:31:00,
2013-02-26 11:36:00,34.3,29.7,29.76,NW,315,0.0,2.5,83,0.13,,CLR,1.60,VWS V12.08,2013-02-26 16:36:00,
2013-02-26 11:41:00,34.3,30.0,29.75,West,270,0.0,0.0,84,0.15,,CLR,1.62,VWS V12.08,2013-02-26 16:41:00,
2013-02-26 11:46:00,34.3,30.0,29.73,NE,45,0.0,0.2,84,0.15,,CLR,1.62,VWS V12.08,2013-02-26 16:46:00,
2013-02-26 11:52:00,34.3,30.0,29.73,NE,45,0.0,0.2,84,0.15,,CLR,1.62,VWS V12.08,2013-02-26 16:52:00,
2013-02-26 11:57:00,34.3,30.0,29.72,NE,45,0.0,0.2,84,0.17,,CLR,1.64,VWS V12.08,2013-02-26 16:57:00,
2013-02-26 12:02:00,34.5,30.2,29.71,NE,45,0.0,0.0,84,0.17,,CLR,1.64,VWS V12.08,2013-02-26 17:02:00,
2013-02-26 12:07:00,34.5,30.2,29.71,NE,45,0.0,0.0,84,0.13,,CLR,1.64,VWS V12.08,2013-02-26 17:07:00,
2013-02-26 12:12:00,34.5,30.2,29.71,NE,45,0.0,0.0,84,0.13,,CLR,1.64,VWS V12.08,2013-02-26 17:12:00,
2013-02-26 12:17:00,34.7,30.4,29.73,West,270,0.0,0.0,84,0.11,,CLR,1.66,VWS V12.08,2013-02-26 17:17:00,
2013-02-26 12:22:00,34.7,30.4,29.72,North,0,0.0,0.0,84,0.13,,CLR,1.69,VWS V12.08,2013-02-26 17:22:00,
2013-02-26 12:27:00,34.7,30.4,29.72,North,0,0.0,0.0,84,0.13,,CLR,1.69,VWS V12.08,2013-02-26 17:27:00,
2013-02-26 12:32:00,34.7,30.4,29.71,North,0,0.0,0.0,84,0.09,,CLR,1.71,VWS V12.08,2013-02-26 17:32:00,
2013-02-26 12:37:00,34.9,30.5,29.71,WNW,292,0.0,0.0,84,0.09,,CLR,1.71,VWS V12.08,2013-02-26 17:37:00,
2013-02-26 12:42:00,34.9,30.5,29.71,WNW,292,0.0,0.0,84,0.11,,CLR,1.73,VWS V12.08,2013-02-26 17:42:00,
2013-02-26 12:47:00,35.2,30.9,29.69,WNW,292,0.0,0.0,84,0.11,,CLR,1.75,VWS V12.08,2013-02-26 17:47:00,
2013-02-26 12:52:00,35.2,30.9,29.69,WNW,292,0.0,0.0,84,0.13,,CLR,1.75,VWS V12.08,2013-02-26 17:52:00,
2013-02-26 12:57:00,35.2,30.9,29.70,WNW,292,0.0,0.0,84,0.11,,CLR,1.75,VWS V12.08,2013-02-26 17:57:00,
2013-02-26 13:02:00,35.1,30.7,29.68,NW,315,0.0,0.0,84,0.11,,CLR,1.75,VWS V12.08,2013-02-26 18:02:00,
2013-02-26 13:07:00,35.1,30.7,29.69,NW,315,0.0,0.0,84,0.11,,CLR,1.75,VWS V12.08,2013-02-26 18:07:00,
2013-02-26 13:12:00,34.9,30.5,29.69,West,270,0.0,0.0,84,0.11,,CLR,1.75,VWS V12.08,2013-02-26 18:12:00,
2013-02-26 13:17:00,35.2,30.9,29.68,West,270,0.0,0.0,84,0.11,,CLR,1.77,VWS V12.08,2013-02-26 18:17:00,
2013-02-26 13:22:00,35.2,30.9,29.67,NNE,22,0.0,0.0,84,0.11,,CLR,1.79,VWS V12.08,2013-02-26 18:22:00,
2013-02-26 13:27:00,35.2,30.9,29.67,WNW,292,0.0,2.9,84,0.11,,CLR,1.79,VWS V12.08,2013-02-26 18:27:00,
2013-02-26 13:32:00,35.2,30.9,29.65,NE,45,0.0,2.9,84,0.11,,CLR,1.82,VWS V12.08,2013-02-26 18:32:00,
2013-02-26 13:37:00,35.2,30.9,29.65,NE,45,0.0,2.9,84,0.09,,CLR,1.82,VWS V12.08,2013-02-26 18:37:00,
2013-02-26 13:42:00,35.4,31.1,29.65,WNW,292,6.3,6.3,84,0.09,,CLR,1.82,VWS V12.08,2013-02-26 18:42:00,
2013-02-26 13:47:00,35.4,31.1,29.65,WNW,292,0.0,6.3,84,0.06,,CLR,1.82,VWS V12.08,2013-02-26 18:47:00,
2013-02-26 13:52:00,35.4,31.1,29.67,WSW,248,3.4,6.3,84,0.06,,CLR,1.82,VWS V12.08,2013-02-26 18:52:00,
2013-02-26 13:57:00,35.4,31.1,29.66,West,270,0.0,6.3,84,0.09,,CLR,1.84,VWS V12.08,2013-02-26 18:57:00,
2013-02-26 14:02:00,35.4,31.1,29.68,West,270,0.0,0.0,84,0.11,,CLR,1.88,VWS V12.08,2013-02-26 19:02:00,
2013-02-26 14:07:00,35.4,31.1,29.68,North,0,0.0,0.0,84,0.13,,CLR,1.88,VWS V12.08,2013-02-26 19:07:00,
2013-02-26 14:12:00,35.8,31.7,29.67,WNW,292,0.0,2.0,85,0.13,,CLR,1.88,VWS V12.08,2013-02-26 19:12:00,
2013-02-26 14:17:00,35.8,31.7,29.65,NW,315,0.4,2.0,85,0.11,,CLR,1.88,VWS V12.08,2013-02-26 19:17:00,
2013-02-26 14:22:00,35.8,31.7,29.65,NW,315,0.0,0.0,85,0.13,,CLR,1.92,VWS V12.08,2013-02-26 19:22:00,
2013-02-26 14:27:00,36.0,31.9,29.65,NW,315,0.0,0.0,85,0.11,,CLR,1.92,VWS V12.08,2013-02-26 19:27:00,
2013-02-26 14:32:00,36.0,31.9,29.65,NW,315,0.0,0.0,85,0.15,,CLR,1.97,VWS V12.08,2013-02-26 19:32:00,
2013-02-26 14:37:00,36.1,32.1,29.64,NW,315,0.0,0.0,85,0.15,,CLR,1.97,VWS V12.08,2013-02-26 19:37:00,
2013-02-26 14:42:00,36.3,32.0,29.64,NW,315,0.0,0.0,84,0.15,,CLR,1.97,VWS V12.08,2013-02-26 19:42:00,
2013-02-26 14:47:00,36.3,32.0,29.63,NW,315,0.0,0.0,84,0.15,,CLR,1.97,VWS V12.08,2013-02-26 19:47:00,
2013-02-26 14:52:00,36.3,32.0,29.63,North,0,0.0,0.0,84,0.15,,CLR,1.97,VWS V12.08,2013-02-26 19:52:00,
2013-02-26 14:57:00,36.3,32.0,29.63,NW,315,0.0,0.0,84,0.13,,CLR,1.97,VWS V12.08,2013-02-26 19:57:00,
2013-02-26 15:02:00,36.3,32.0,29.63,NNW,338,0.0,3.1,84,0.09,,CLR,1.97,VWS V12.08,2013-02-26 20:02:00,
2013-02-26 15:07:00,36.3,32.0,29.63,NW,315,1.8,3.1,84,0.09,,CLR,1.97,VWS V12.08,2013-02-26 20:07:00,
2013-02-26 15:12:00,36.3,32.0,29.63,West,270,0.0,3.1,84,0.09,,CLR,1.97,VWS V12.08,2013-02-26 20:12:00,
2013-02-26 15:20:00,36.5,32.1,29.62,WNW,292,0.0,3.1,84,0.11,,CLR,1.99,VWS V12.08,2013-02-26 20:20:00,
2013-02-26 15:25:00,36.7,32.6,29.61,North,0,0.0,0.0,85,0.06,,CLR,1.99,VWS V12.08,2013-02-26 20:25:00,
2013-02-26 15:30:00,37.0,33.0,29.61,West,270,0.0,0.0,85,0.02,,CLR,1.99,VWS V12.08,2013-02-26 20:30:00,
2013-02-26 15:35:00,37.2,32.8,29.62,West,270,0.0,0.0,84,0.02,,CLR,1.99,VWS V12.08,2013-02-26 20:35:00,
2013-02-26 15:40:00,37.2,32.8,29.61,West,270,0.0,0.0,84,0.02,,CLR,1.99,VWS V12.08,2013-02-26 20:40:00,
2013-02-26 15:45:00,37.2,32.8,29.62,WNW,292,0.0,0.0,84,0.02,,CLR,1.99,VWS V12.08,2013-02-26 20:45:00,
2013-02-26 15:50:00,37.2,32.8,29.61,WNW,292,0.0,0.0,84,0.02,,CLR,1.99,VWS V12.08,2013-02-26 20:50:00,
2013-02-26 15:55:00,37.4,33.0,29.62,WNW,292,0.0,0.0,84,0.02,,CLR,1.99,VWS V12.08,2013-02-26 20:55:00,
2013-02-26 16:00:00,37.4,33.0,29.61,WNW,292,0.0,0.0,84,0.02,,CLR,1.99,VWS V12.08,2013-02-26 21:00:00,
2013-02-26 16:05:00,37.4,33.0,29.61,NW,315,0.9,0.9,84,0.02,,CLR,1.99,VWS V12.08,2013-02-26 21:05:00,
2013-02-26 16:10:00,37.4,33.0,29.61,NW,315,0.0,0.9,84,0.02,,CLR,1.99,VWS V12.08,2013-02-26 21:10:00,
2013-02-26 16:15:00,37.6,33.2,29.60,NW,315,0.0,0.9,84,0.00,,CLR,1.99,VWS V12.08,2013-02-26 21:15:00,
2013-02-26 16:20:00,37.6,33.2,29.61,NNW,338,0.0,0.0,84,0.00,,CLR,1.99,VWS V12.08,2013-02-26 21:20:00,
2013-02-26 16:25:00,37.8,33.4,29.61,WNW,292,0.0,0.0,84,0.00,,CLR,1.99,VWS V12.08,2013-02-26 21:25:00,
2013-02-26 16:30:00,37.8,33.4,29.61,WNW,292,0.7,0.7,84,0.00,,CLR,1.99,VWS V12.08,2013-02-26 21:30:00,
2013-02-26 16:35:00,37.8,33.4,29.61,WNW,292,0.0,0.7,84,0.00,,CLR,1.99,VWS V12.08,2013-02-26 21:35:00,
2013-02-26 16:40:00,37.8,33.4,29.60,North,0,0.0,0.0,84,0.00,,CLR,1.99,VWS V12.08,2013-02-26 21:40:00,
2013-02-26 16:45:00,37.8,33.4,29.60,North,0,0.0,0.0,84,0.00,,CLR,1.99,VWS V12.08,2013-02-26 21:45:00,
2013-02-26 16:50:00,37.8,33.4,29.60,North,0,0.0,0.0,84,0.00,,CLR,1.99,VWS V12.08,2013-02-26 21:50:00,
2013-02-26 16:55:00,37.9,33.5,29.60,WNW,292,0.0,0.0,84,0.00,,CLR,1.99,VWS V12.08,2013-02-26 21:55:00,
2013-02-26 17:00:00,37.9,33.5,29.60,WNW,292,0.0,0.0,84,0.00,,CLR,1.99,VWS V12.08,2013-02-26 22:00:00,
2013-02-26 17:05:00,37.9,33.5,29.59,NW,315,0.0,0.0,84,0.00,,CLR,1.99,VWS V12.08,2013-02-26 22:05:00,
2013-02-26 17:10:00,38.1,33.7,29.59,NW,315,0.0,0.0,84,0.00,,CLR,1.99,VWS V12.08,2013-02-26 22:10:00,
2013-02-26 17:15:00,38.1,33.7,29.59,NW,315,0.0,0.0,84,0.00,,CLR,1.99,VWS V12.08,2013-02-26 22:15:00,
2013-02-26 17:20:00,38.3,33.9,29.59,NNW,338,0.0,0.0,84,0.00,,CLR,1.99,VWS V12.08,2013-02-26 22:20:00,
2013-02-26 17:25:00,38.3,33.9,29.59,NNW,338,0.0,0.0,84,0.00,,CLR,1.99,VWS V12.08,2013-02-26 22:25:00,
2013-02-26 17:30:00,38.3,33.9,29.59,NE,45,0.0,0.0,84,0.00,,CLR,1.99,VWS V12.08,2013-02-26 22:30:00,
2013-02-26 17:35:00,38.3,33.9,29.58,ENE,68,0.0,0.0,84,0.00,,CLR,1.99,VWS V12.08,2013-02-26 22:35:00,
2013-02-26 17:40:00,38.3,33.9,29.58,ENE,68,0.0,0.0,84,0.00,,CLR,1.99,VWS V12.08,2013-02-26 22:40:00,
2013-02-26 17:45:00,38.3,33.9,29.59,ENE,68,0.0,0.0,84,0.00,,CLR,1.99,VWS V12.08,2013-02-26 22:45:00,
2013-02-26 17:50:00,38.5,34.1,29.58,ENE,68,0.0,0.0,84,0.00,,CLR,1.99,VWS V12.08,2013-02-26 22:50:00,
2013-02-26 17:55:00,38.5,34.1,29.58,ENE,68,0.0,0.0,84,0.00,,CLR,1.99,VWS V12.08,2013-02-26 22:55:00,
2013-02-26 18:00:00,38.5,33.8,29.59,NE,45,0.0,0.0,83,0.00,,CLR,1.99,VWS V12.08,2013-02-26 23:00:00,
2013-02-26 18:05:00,38.3,33.6,29.59,ENE,68,0.0,0.0,83,0.00,,CLR,1.99,VWS V12.08,2013-02-26 23:05:00,
2013-02-26 18:10:00,38.3,33.6,29.59,ENE,68,0.0,0.0,83,0.00,,CLR,1.99,VWS V12.08,2013-02-26 23:10:00,
2013-02-26 18:15:00,38.3,33.6,29.60,ENE,68,0.0,0.0,83,0.00,,CLR,1.99,VWS V12.08,2013-02-26 23:15:00,
2013-02-26 18:20:00,38.3,33.6,29.60,ENE,68,0.0,0.0,83,0.00,,CLR,1.99,VWS V12.08,2013-02-26 23:20:00,
2013-02-26 18:25:00,38.3,33.6,29.60,ENE,68,0.0,0.0,83,0.00,,CLR,1.99,VWS V12.08,2013-02-26 23:25:00,
2013-02-26 18:30:00,38.1,33.4,29.60,ENE,68,0.0,0.0,83,0.00,,CLR,1.99,VWS V12.08,2013-02-26 23:30:00,
2013-02-26 18:35:00,38.1,33.4,29.61,ENE,68,0.0,0.0,83,0.00,,CLR,1.99,VWS V12.08,2013-02-26 23:35:00,
2013-02-26 18:40:00,37.9,33.2,29.61,ENE,68,0.0,0.0,83,0.00,,CLR,1.99,VWS V12.08,2013-02-26 23:40:00,
2013-02-26 18:45:00,37.9,33.2,29.61,ENE,68,0.0,0.0,83,0.00,,CLR,1.99,VWS V12.08,2013-02-26 23:45:00,
2013-02-26 18:50:00,37.9,33.2,29.62,ENE,68,0.0,0.0,83,0.00,,CLR,1.99,VWS V12.08,2013-02-26 23:50:00,
2013-02-26 18:55:00,37.9,33.2,29.62,ENE,68,0.0,0.0,83,0.00,,CLR,1.99,VWS V12.08,2013-02-26 23:55:00,
2013-02-26 19:00:00,37.9,33.2,29.62,ENE,68,0.0,0.0,83,0.00,,CLR,1.99,VWS V12.08,2013-02-27 00:00:00,
2013-02-26 19:05:00,37.9,33.2,29.62,ENE,68,0.0,0.0,83,0.00,,CLR,1.99,VWS V12.08,2013-02-27 00:05:00,
2013-02-26 19:10:00,37.9,33.2,29.63,ENE,68,0.0,0.0,83,0.00,,CLR,1.99,VWS V12.08,2013-02-27 00:10:00,
2013-02-26 19:15:00,37.9,33.2,29.62,ENE,68,0.0,0.0,83,0.00,,CLR,1.99,VWS V12.08,2013-02-27 00:15:00,
2013-02-26 19:20:00,37.9,33.2,29.62,ENE,68,0.0,0.0,83,0.00,,CLR,1.99,VWS V12.08,2013-02-27 00:20:00,
2013-02-26 19:25:00,37.9,33.2,29.62,East,90,0.0,0.0,83,0.00,,CLR,1.99,VWS V12.08,2013-02-27 00:25:00,
2013-02-26 19:30:00,37.6,32.9,29.62,East,90,0.0,0.0,83,0.00,,CLR,1.99,VWS V12.08,2013-02-27 00:30:00,
2013-02-26 19:35:00,37.6,32.9,29.62,East,90,0.0,0.0,83,0.00,,CLR,1.99,VWS V12.08,2013-02-27 00:35:00,
2013-02-26 19:40:00,37.6,32.9,29.63,East,90,0.0,0.0,83,0.00,,CLR,1.99,VWS V12.08,2013-02-27 00:40:00,
2013-02-26 19:45:00,37.6,32.9,29.62,East,90,0.0,0.0,83,0.00,,CLR,1.99,VWS V12.08,2013-02-27 00:45:00,
2013-02-26 19:50:00,37.6,32.9,29.62,East,90,0.0,0.0,83,0.00,,CLR,1.99,VWS V12.08,2013-02-27 00:50:00,
2013-02-26 19:55:00,37.2,32.5,29.63,East,90,0.0,0.0,83,0.00,,CLR,1.99,VWS V12.08,2013-02-27 00:55:00,
2013-02-26 20:00:00,37.2,32.5,29.62,East,90,0.0,0.0,83,0.00,,CLR,1.99,VWS V12.08,2013-02-27 01:00:00,
2013-02-26 20:05:00,37.2,32.5,29.61,East,90,0.0,0.0,83,0.00,,CLR,1.99,VWS V12.08,2013-02-27 01:05:00,
2013-02-26 20:10:00,36.9,32.2,29.61,East,90,0.0,0.0,83,0.00,,CLR,1.99,VWS V12.08,2013-02-27 01:10:00,
2013-02-26 20:15:00,36.5,31.8,29.61,East,90,0.0,0.0,83,0.00,,CLR,1.99,VWS V12.08,2013-02-27 01:15:00,
2013-02-26 20:20:00,36.5,31.8,29.62,East,90,0.0,0.0,83,0.00,,CLR,1.99,VWS V12.08,2013-02-27 01:20:00,
2013-02-26 20:25:00,36.0,31.3,29.62,East,90,0.0,0.0,83,0.00,,CLR,1.99,VWS V12.08,2013-02-27 01:25:00,
2013-02-26 20:30:00,35.8,31.1,29.62,East,90,0.0,0.0,83,0.00,,CLR,1.99,VWS V12.08,2013-02-27 01:30:00,
2013-02-26 20:35:00,35.8,31.1,29.61,East,90,0.0,0.0,83,0.00,,CLR,1.99,VWS V12.08,2013-02-27 01:35:00,
2013-02-26 20:40:00,35.8,31.1,29.62,East,90,0.0,0.0,83,0.00,,CLR,1.99,VWS V12.08,2013-02-27 01:40:00,
2013-02-26 20:45:00,35.8,31.1,29.62,East,90,0.0,0.0,83,0.00,,CLR,1.99,VWS V12.08,2013-02-27 01:45:00,
2013-02-26 20:50:00,35.8,31.1,29.62,East,90,0.0,0.0,83,0.00,,CLR,1.99,VWS V12.08,2013-02-27 01:50:00,
2013-02-26 20:55:00,36.0,31.6,29.62,East,90,0.0,0.0,84,0.00,,CLR,1.99,VWS V12.08,2013-02-27 01:55:00,
2013-02-26 21:00:00,36.1,31.8,29.62,East,90,0.0,0.0,84,0.00,,CLR,1.99,VWS V12.08,2013-02-27 02:00:00,
2013-02-26 21:05:00,36.1,31.8,29.63,East,90,0.0,0.0,84,0.00,,CLR,1.99,VWS V12.08,2013-02-27 02:05:00,
2013-02-26 21:10:00,36.3,32.0,29.63,East,90,0.0,0.0,84,0.00,,CLR,1.99,VWS V12.08,2013-02-27 02:10:00,
2013-02-26 21:15:00,36.3,32.0,29.63,East,90,0.0,0.0,84,0.00,,CLR,1.99,VWS V12.08,2013-02-27 02:15:00,
2013-02-26 21:20:00,36.3,32.0,29.62,East,90,0.0,0.0,84,0.00,,CLR,1.99,VWS V12.08,2013-02-27 02:20:00,
2013-02-26 21:26:00,36.5,32.1,29.62,East,90,0.0,0.0,84,0.00,,CLR,1.99,VWS V12.08,2013-02-27 02:26:00,
2013-02-26 21:31:00,36.5,32.1,29.62,East,90,0.0,0.0,84,0.00,,CLR,1.99,VWS V12.08,2013-02-27 02:31:00,
2013-02-26 21:36:00,36.7,32.3,29.62,East,90,0.0,0.0,84,0.00,,CLR,1.99,VWS V12.08,2013-02-27 02:36:00,
2013-02-26 21:41:00,36.7,32.3,29.64,East,90,0.0,0.0,84,0.00,,CLR,1.99,VWS V12.08,2013-02-27 02:41:00,
2013-02-26 21:46:00,36.7,32.3,29.63,East,90,0.0,0.0,84,0.00,,CLR,1.99,VWS V12.08,2013-02-27 02:46:00,
2013-02-26 21:51:00,36.7,32.3,29.63,East,90,0.0,0.0,84,0.00,,CLR,1.99,VWS V12.08,2013-02-27 02:51:00,
2013-02-26 21:56:00,36.7,32.6,29.63,East,90,0.0,0.0,85,0.00,,CLR,1.99,VWS V12.08,2013-02-27 02:56:00,
2013-02-26 22:01:00,36.9,32.8,29.63,East,90,0.0,0.0,85,0.00,,CLR,1.99,VWS V12.08,2013-02-27 03:01:00,
2013-02-26 22:06:00,37.0,33.0,29.62,East,90,0.0,0.0,85,0.00,,CLR,1.99,VWS V12.08,2013-02-27 03:06:00,
2013-02-26 22:11:00,37.0,33.0,29.62,East,90,0.0,0.0,85,0.00,,CLR,1.99,VWS V12.08,2013-02-27 03:11:00,
2013-02-26 22:16:00,37.2,33.1,29.62,ESE,112,0.0,0.0,85,0.00,,CLR,1.99,VWS V12.08,2013-02-27 03:16:00,
2013-02-26 22:21:00,37.2,33.1,29.62,East,90,0.0,0.0,85,0.00,,CLR,1.99,VWS V12.08,2013-02-27 03:21:00,
2013-02-26 22:26:00,37.2,33.1,29.62,East,90,0.0,0.0,85,0.00,,CLR,1.99,VWS V12.08,2013-02-27 03:26:00,
2013-02-26 22:31:00,37.2,33.1,29.62,ESE,112,0.0,0.0,85,0.00,,CLR,1.99,VWS V12.08,2013-02-27 03:31:00,
2013-02-26 22:36:00,37.2,33.1,29.63,East,90,0.0,0.0,85,0.00,,CLR,1.99,VWS V12.08,2013-02-27 03:36:00,
2013-02-26 22:42:00,37.2,33.1,29.63,ESE,112,0.0,0.0,85,0.00,,CLR,1.99,VWS V12.08,2013-02-27 03:42:00,
2013-02-26 22:47:00,37.4,33.3,29.63,ESE,112,0.0,0.0,85,0.00,,CLR,1.99,VWS V12.08,2013-02-27 03:47:00,
2013-02-26 22:52:00,37.4,33.3,29.63,ESE,112,0.0,0.0,85,0.00,,CLR,1.99,VWS V12.08,2013-02-27 03:52:00,
2013-02-26 22:57:00,37.4,33.3,29.63,East,90,0.0,0.0,85,0.00,,CLR,1.99,VWS V12.08,2013-02-27 03:57:00,
2013-02-26 23:02:00,37.2,33.1,29.62,SE,135,0.0,0.0,85,0.00,,CLR,1.99,VWS V12.08,2013-02-27 04:02:00,
2013-02-26 23:07:00,37.0,32.7,29.62,East,90,0.0,0.4,84,0.00,,CLR,1.99,VWS V12.08,2013-02-27 04:07:00,
2013-02-26 23:12:00,37.0,32.7,29.63,East,90,0.0,0.4,84,0.00,,CLR,1.99,VWS V12.08,2013-02-27 04:12:00,
2013-02-26 23:17:00,36.7,32.3,29.63,South,180,0.0,0.4,84,0.00,,CLR,1.99,VWS V12.08,2013-02-27 04:17:00,
2013-02-26 23:22:00,36.5,32.1,29.63,South,180,0.0,0.0,84,0.00,,CLR,1.99,VWS V12.08,2013-02-27 04:22:00,
2013-02-26 23:27:00,36.7,32.3,29.62,SSE,158,0.0,0.0,84,0.00,,CLR,1.99,VWS V12.08,2013-02-27 04:27:00,
2013-02-26 23:32:00,36.5,32.1,29.63,SSE,158,0.0,0.0,84,0.00,,CLR,1.99,VWS V12.08,2013-02-27 04:32:00,
2013-02-26 23:37:00,36.3,32.0,29.63,SSE,158,0.0,0.0,84,0.00,,CLR,1.99,VWS V12.08,2013-02-27 04:37:00,
2013-02-26 23:42:00,36.3,32.0,29.63,SSE,158,0.0,0.0,84,0.00,,CLR,1.99,VWS V12.08,2013-02-27 04:42:00,
2013-02-26 23:47:00,36.3,32.2,29.62,SSE,158,0.0,0.0,85,0.00,,CLR,1.99,VWS V12.08,2013-02-27 04:47:00,
2013-02-26 23:52:00,36.5,32.4,29.63,SSW,202,0.0,0.0,85,0.00,,CLR,1.99,VWS V12.08,2013-02-27 04:52:00,
2013-02-26 23:57:00,36.7,32.6,29.63,SSW,202,0.0,0.0,85,0.00,,CLR,1.99,VWS V12.08,2013-02-27 04:57:00,